Latest Weather Observations for Cape Byron

IDN60801

Issued at 10:32 pm EST Tuesday 25 April 2017 (issued every 30 minutes, with the page automatically refreshed every 10 minutes)

About weather observations | Map of weather stations | Latest weather observations for NSW | Other Formats
Station Details ID: 058216 Name: CAPE BYRON AWS Lat: -28.64 Lon: 153.64 Height: 95.0 m
Data from the previous 72 hours. | See also: Recent months at Cape Byron
Date/Time
EST
Temp
°C
App
Temp
°C
Dew
Point
°C
Rel
Hum
%
Delta-T
°C
Wind Press
QNH
hPa
Press
MSL
hPa
Rain since
9am
mm
Dir  Spd
km/h
Gust
km/h
Spd
kts
Gust
kts
25/10:30pm 20.9 19.2 17.3 80 2.2 N 22 32 12 17 1014.3 1014.0 0.0
25/10:00pm 21.0 19.3 17.2 79 2.3 N 22 35 12 19 1015.0 1014.7 0.0
25/09:30pm 21.2 20.0 17.6 80 2.2 N 20 28 11 15 1015.1 1014.8 0.0
25/09:00pm 21.2 20.0 17.4 79 2.3 N 20 30 11 16 1015.5 1015.2 0.0
25/08:30pm 21.2 20.2 17.6 80 2.2 N 19 26 10 14 1015.7 1015.4 0.0
25/08:00pm 21.6 18.8 17.4 77 2.6 N 28 37 15 20 1015.7 1015.4 0.0
25/07:30pm 21.6 19.2 17.4 77 2.6 N 26 37 14 20 1015.5 1015.2 0.0
25/07:00pm 21.6 18.3 17.0 75 2.8 N 30 41 16 22 1015.1 1014.8 0.0
25/06:30pm 21.6 18.1 16.6 73 3.0 N 30 39 16 21 1015.0 1014.7 0.0
25/06:00pm 21.6 19.3 16.6 73 3.0 NNE 24 35 13 19 1014.9 1014.6 0.0
25/05:30pm 21.7 19.9 16.9 74 2.9 NNE 22 32 12 17 1014.9 1014.6 0.0
25/05:00pm 21.8 19.4 16.5 72 3.2 NNE 24 32 13 17 1014.8 1014.5 0.0
25/04:30pm 22.1 20.5 16.6 71 3.4 NNE 20 32 11 17 1014.9 1014.6 0.0
25/04:00pm 22.4 20.5 16.7 70 3.5 NNE 22 32 12 17 1015.0 1014.7 0.0
25/03:30pm 22.7 20.4 16.7 69 3.7 NE 24 37 13 20 1015.1 1014.8 0.0
25/03:00pm 23.3 20.3 16.8 67 4.0 NE 28 39 15 21 1015.2 1014.9 0.0
25/02:30pm 23.3 21.1 16.8 67 4.0 NE 24 33 13 18 1015.5 1015.2 0.0
25/02:00pm 23.7 22.3 17.0 66 4.1 NE 20 30 11 16 1015.9 1015.6 0.0
25/01:30pm 24.1 23.4 17.4 66 4.2 NNE 17 22 9 12 1016.4 1016.0 0.0
25/01:00pm 24.2 23.4 17.0 64 4.5 NE 17 22 9 12 1016.8 1016.4 0.0
25/12:30pm 25.5 24.8 18.2 64 4.6 NE 19 22 10 12 1017.2 1016.8 0.0
25/12:00pm 24.9 25.0 17.4 63 4.7 NE 13 17 7 9 1017.9 1017.5 0.0
25/11:30am 23.1 23.9 16.4 66 4.1 NNE 7 11 4 6 1018.5 1018.1 0.0
25/11:00am 24.1 24.7 16.9 64 4.4 NNE 9 13 5 7 1019.0 1018.6 0.0
25/10:30am 24.1 25.0 16.6 63 4.6 NE 7 11 4 6 1019.4 1019.0 0.0
25/10:00am 23.3 24.3 16.8 67 4.0 ENE 7 11 4 6 1019.7 1019.3 0.0
25/09:30am 22.4 23.5 16.7 70 3.5 E 6 9 3 5 1019.9 1019.5 0.0
25/09:00am 21.1 21.8 15.6 71 3.3 SW 6 7 3 4 1019.9 1019.5 0.0
25/08:30am 20.9 22.2 16.1 74 2.9 W 4 7 2 4 1020.1 1019.7 0.0
25/08:00am 19.7 20.1 15.4 76 2.5 W 7 9 4 5 1020.0 1019.6 0.0
25/07:30am 18.7 17.9 15.0 79 2.2 W 13 17 7 9 1019.8 1019.4 0.0
25/07:00am 18.5 18.0 15.0 80 2.0 W 11 13 6 7 1019.3 1018.9 0.0
25/06:30am 18.8 20.4 14.9 78 2.3 CALM 0 0 0 0 1019.1 1018.7 0.0
25/06:00am 18.6 18.9 14.9 79 2.2 S 7 9 4 5 1018.7 1018.3 0.0
25/05:30am 18.4 18.6 14.7 79 2.2 SW 7 9 4 5 1018.8 1018.4 0.0
25/05:00am 18.8 18.9 14.5 76 2.5 W 7 9 4 5 1019.0 1018.6 0.0
25/04:30am 19.1 19.4 14.6 75 2.6 SW 6 7 3 4 1018.9 1018.5 0.0
25/04:00am 19.4 19.9 14.9 75 2.6 WSW 6 9 3 5 1018.9 1018.5 0.0
25/03:30am 19.6 19.5 15.0 75 2.7 W 9 11 5 6 1019.0 1018.6 0.0
25/03:00am 19.4 19.4 15.3 77 2.4 W 9 11 5 6 1019.2 1018.8 0.0
25/02:30am 19.2 19.2 15.1 77 2.4 W 9 11 5 6 1019.2 1018.8 0.0
25/02:00am 19.4 20.0 15.3 77 2.4 WNW 6 7 3 4 1019.2 1018.8 0.0
25/01:30am 19.5 21.2 15.2 76 2.5 CALM 0 4 0 2 1019.4 1019.0 0.0
25/01:00am 19.2 20.9 15.1 77 2.4 CALM 0 7 0 4 1019.7 1019.3 0.0
25/12:30am 19.4 19.7 15.1 76 2.5 W 7 11 4 6 1020.0 1019.6 0.0
25/12:00am 19.1 18.0 15.2 78 2.3 W 15 17 8 9 1020.7 1020.4 0.0
 
Date/Time
EST
Temp
°C
App
Temp
°C
Dew
Point
°C
Rel
Hum
%
Delta-T
°C
Wind Press
QNH
hPa
Press
MSL
hPa
Rain since
9am
mm
Dir  Spd
km/h
Gust
km/h
Spd
kts
Gust
kts
24/11:30pm 19.0 18.3 15.3 79 2.2 W 13 17 7 9 1021.0 1020.7 0.0
24/11:00pm 18.7 17.9 15.2 80 2.1 WNW 13 17 7 9 1021.1 1020.8 0.0
24/10:30pm 19.4 19.9 15.5 78 2.3 NW 7 11 4 6 1021.1 1020.8 0.0
24/10:00pm 19.5 19.9 15.4 77 2.4 NNW 7 11 4 6 1021.3 1021.0 0.0
24/09:30pm 19.4 19.4 15.3 77 2.4 N 9 11 5 6 1021.4 1021.1 0.0
24/09:00pm 20.0 20.5 15.6 76 2.6 ENE 7 13 4 7 1021.3 1021.0 0.0
24/08:30pm 20.2 20.2 15.2 73 3.0 E 9 13 5 7 1021.2 1020.9 0.0
24/08:00pm 20.2 20.1 15.0 72 3.1 E 9 13 5 7 1021.1 1020.8 0.0
24/07:30pm 20.3 20.3 15.3 73 3.0 E 9 17 5 9 1021.0 1020.7 0.0
24/07:00pm 20.3 18.8 15.3 73 3.0 E 17 24 9 13 1020.5 1020.2 0.0
24/06:30pm 20.4 19.1 15.8 75 2.8 E 17 22 9 12 1020.2 1019.9 0.0
24/06:00pm 20.3 18.9 15.5 74 2.9 E 17 24 9 13 1020.2 1019.9 0.0
24/05:30pm 20.4 19.3 15.2 72 3.1 E 15 20 8 11 1020.1 1019.7 0.0
24/05:00pm 20.9 19.4 15.4 71 3.3 E 17 20 9 11 1020.0 1019.6 0.0
24/04:30pm 21.4 20.6 17.0 76 2.7 ESE 17 24 9 13 1019.9 1019.5 0.0
24/04:00pm 21.5 20.1 16.5 73 3.0 ESE 19 24 10 13 1019.9 1019.5 0.0
24/03:30pm 22.3 21.4 16.8 71 3.4 ESE 17 22 9 12 1019.8 1019.4 0.0
24/03:00pm 23.0 22.4 17.5 71 3.4 ESE 17 22 9 12 1019.8 1019.4 0.0
24/02:30pm 22.5 21.4 16.3 68 3.8 SE 17 20 9 11 1019.9 1019.5 0.0
24/02:00pm 22.6 21.5 16.4 68 3.8 SE 17 22 9 12 1020.0 1019.6 0.0
24/01:30pm 22.6 21.6 16.6 69 3.7 SSE 17 20 9 11 1020.0 1019.6 0.0
24/01:00pm 22.5 21.6 16.8 70 3.5 SSE 17 20 9 11 1020.3 1020.0 0.0
24/12:30pm 22.6 22.1 16.9 70 3.5 SSE 15 20 8 11 1020.7 1020.4 0.0
24/12:00pm 22.5 21.8 16.5 69 3.7 SSE 15 20 8 11 1021.2 1020.9 0.0
24/11:30am 22.1 20.5 16.1 69 3.6 S 19 22 10 12 1021.7 1021.4 0.0
24/11:00am 22.1 20.8 16.8 72 3.2 SSW 19 24 10 13 1022.2 1021.9 0.0
24/10:30am 21.8 21.3 17.0 74 2.9 SSW 15 22 8 12 1022.7 1022.4 0.0
24/10:00am 21.2 20.6 16.6 75 2.8 WSW 15 20 8 11 1022.8 1022.5 0.0
24/09:30am 20.2 18.6 16.0 77 2.5 WSW 19 24 10 13 1022.8 1022.5 0.0
24/09:00am 19.4 17.8 15.9 80 2.1 SW 19 24 10 13 1022.5 1022.2 0.0
24/08:30am 18.1 16.3 15.4 84 1.6 WSW 19 24 10 13 1022.4 1022.1 0.0
24/08:00am 17.5 14.9 15.0 85 1.5 WSW 22 28 12 15 1022.2 1021.9 0.0
24/07:30am 17.2 14.6 14.8 86 1.4 WSW 22 26 12 14 1021.9 1021.6 0.0
24/07:00am 16.6 13.5 14.6 88 1.1 WSW 24 30 13 16 1021.6 1021.3 0.0
24/06:30am 16.5 13.4 14.5 88 1.1 WSW 24 32 13 17 1021.4 1021.1 0.0
24/06:00am 16.6 13.5 14.4 87 1.3 WSW 24 30 13 16 1021.3 1021.0 0.0
24/05:30am 16.7 13.7 14.7 88 1.2 WSW 24 28 13 15 1021.0 1020.7 0.0
24/05:00am 16.8 14.2 14.8 88 1.2 WSW 22 26 12 14 1020.9 1020.6 0.0
24/04:30am 16.9 13.9 14.9 88 1.2 WSW 24 30 13 16 1020.8 1020.5 0.0
24/04:00am 17.1 14.2 15.1 88 1.2 WSW 24 30 13 16 1020.9 1020.6 0.0
24/03:30am 17.1 14.5 14.9 87 1.3 WSW 22 28 12 15 1020.8 1020.5 0.0
24/03:00am 17.7 15.8 15.1 85 1.5 WSW 19 24 10 13 1021.0 1020.7 0.0
24/02:30am 18.1 16.6 15.2 83 1.7 SW 17 19 9 10 1021.3 1021.0 0.0
24/02:00am 18.2 17.1 15.3 83 1.7 SW 15 19 8 10 1021.6 1021.3 0.0
24/01:30am 18.6 17.6 15.5 82 1.8 WSW 15 17 8 9 1021.8 1021.5 0.0
24/01:00am 18.9 18.4 15.8 82 1.8 SW 13 15 7 8 1022.0 1021.7 0.0
24/12:30am 19.1 18.9 15.8 81 2.0 SSW 11 13 6 7 1022.1 1021.8 0.0
24/12:00am 19.1 18.6 15.8 81 2.0 SSW 13 15 7 8 1022.3 1022.0 0.0
 
Date/Time
EST
Temp
°C
App
Temp
°C
Dew
Point
°C
Rel
Hum
%
Delta-T
°C
Wind Press
QNH
hPa
Press
MSL
hPa
Rain since
9am
mm
Dir  Spd
km/h
Gust
km/h
Spd
kts
Gust
kts
23/11:30pm 19.2 19.4 15.7 80 2.1 SSW 9 11 5 6 1022.5 1022.2 0.0
23/11:00pm 19.6 19.9 16.1 80 2.1 S 9 13 5 7 1022.7 1022.4 0.0
23/10:30pm 20.0 20.2 15.8 77 2.5 SSE 9 11 5 6 1022.8 1022.5 0.0
23/10:00pm 20.2 20.9 16.0 77 2.5 SE 7 11 4 6 1023.1 1022.8 0.0
23/09:30pm 20.2 20.9 16.0 77 2.5 SSE 7 9 4 5 1023.1 1022.8 0.0
23/09:00pm 20.2 20.6 16.2 78 2.4 SE 9 13 5 7 1023.2 1022.9 0.0
23/08:30pm 20.3 20.2 16.1 77 2.5 ESE 11 15 6 8 1023.0 1022.7 0.0
23/08:00pm 20.2 20.5 16.0 77 2.5 E 9 15 5 8 1022.9 1022.6 0.0
23/07:30pm 20.4 19.6 16.2 77 2.5 ESE 15 19 8 10 1022.6 1022.3 0.0
23/07:00pm 20.2 19.4 16.0 77 2.5 ESE 15 20 8 11 1022.3 1022.0 0.0
23/06:30pm 20.2 19.8 16.2 78 2.4 E 13 17 7 9 1022.1 1021.8 0.0
23/06:00pm 20.3 19.0 15.9 76 2.6 E 17 22 9 12 1021.8 1021.5 0.0
23/05:30pm 20.6 18.9 15.8 74 2.9 ESE 19 22 10 12 1021.7 1021.4 0.0
23/05:00pm 21.2 19.3 15.7 71 3.3 ESE 20 24 11 13 1021.6 1021.3 0.0
23/04:30pm 21.5 19.7 16.0 71 3.3 ESE 20 26 11 14 1021.2 1020.9 0.0
23/04:00pm 21.8 20.0 15.6 68 3.7 SE 19 24 10 13 1021.1 1020.8 0.0
23/03:30pm 22.2 20.5 15.8 67 3.9 SE 19 26 10 14 1021.1 1020.8 0.0
23/03:00pm 22.4 21.2 16.0 67 3.9 SE 17 20 9 11 1021.2 1020.9 0.0
23/02:30pm 22.3 20.3 15.6 66 4.0 SE 20 24 11 13 1021.4 1021.1 0.0
23/02:00pm 21.8 20.4 16.5 72 3.2 SSE 19 26 10 14 1021.6 1021.3 0.0
23/01:30pm 22.0 19.9 16.3 70 3.5 S 22 26 12 14 1021.7 1021.4 0.0
23/01:00pm 22.1 20.3 16.1 69 3.6 S 20 24 11 13 1021.8 1021.5 0.0
23/12:30pm 21.7 19.8 15.8 69 3.6 S 20 24 11 13 1022.2 1021.9 0.0
23/12:00pm 21.8 19.8 15.4 67 3.8 S 20 26 11 14 1022.5 1022.2 0.0
23/11:30am 21.9 20.0 15.7 68 3.7 S 20 26 11 14 1022.9 1022.6 0.0
23/11:00am 21.5 19.0 15.1 67 3.8 S 22 28 12 15 1023.2 1022.9 0.0
23/10:30am 21.4 19.7 15.7 70 3.4 SSW 19 24 10 13 1023.9 1023.6 0.0
23/10:00am 20.6 19.1 15.4 72 3.1 SSW 17 24 9 13 1024.2 1023.9 0.0
23/09:30am 20.4 18.9 15.4 73 3.0 SW 17 22 9 12 1024.4 1024.1 0.0
23/09:00am 18.8 16.4 14.5 76 2.5 SW 20 24 11 13 1024.4 1024.1 0.0
23/08:30am 18.6 16.7 14.3 76 2.5 WSW 17 24 9 13 1024.3 1024.0 0.0
23/08:00am 18.5 16.3 14.4 77 2.4 SW 19 24 10 13 1024.0 1023.7 0.0
23/07:30am 17.6 15.0 13.9 79 2.1 SW 20 24 11 13 1023.6 1023.3 0.0
23/07:00am 17.1 14.1 13.6 80 2.0 SW 22 28 12 15 1023.4 1023.1 0.0
23/06:30am 16.7 13.5 13.2 80 2.0 WSW 22 28 12 15 1023.1 1022.8 0.0
23/06:00am 17.5 15.2 14.0 80 2.0 SW 19 22 10 12 1023.0 1022.7 0.0
23/05:30am 17.4 15.0 13.9 80 2.0 SW 19 22 10 12 1022.7 1022.4 0.0
23/05:00am 16.7 13.2 13.4 81 1.9 SW 24 28 13 15 1022.4 1022.1 0.0
23/04:30am 16.7 13.1 13.0 79 2.1 SW 24 30 13 16 1022.3 1022.0 0.0
23/04:00am 17.2 14.5 13.5 79 2.1 SW 20 26 11 14 1022.2 1021.9 0.0
23/03:30am 17.2 14.1 13.3 78 2.2 SW 22 26 12 14 1022.2 1021.9 0.0
23/03:00am 17.0 13.8 13.1 78 2.2 SW 22 28 12 15 1022.5 1022.2 0.0
23/02:30am 17.1 13.9 13.0 77 2.3 SW 22 26 12 14 1022.7 1022.4 0.0
23/02:00am 17.8 15.5 12.9 73 2.7 SW 17 20 9 11 1022.9 1022.6 0.0
23/01:30am 17.8 15.5 12.9 73 2.8 SW 17 20 9 11 1023.2 1022.9 0.0
23/01:00am 18.3 16.8 13.0 71 3.0 SSW 13 17 7 9 1023.5 1023.2 0.0
23/12:30am 18.6 16.6 12.6 68 3.4 SSW 15 17 8 9 1023.9 1023.6 0.0
23/12:00am 19.0 17.8 12.7 67 3.5 SSW 11 15 6 8 1024.2 1023.9 0.0
 
Date/Time
EST
Temp
°C
App
Temp
°C
Dew
Point
°C
Rel
Hum
%
Delta-T
°C
Wind Press
QNH
hPa
Press
MSL
hPa
Rain since
9am
mm
Dir  Spd
km/h
Gust
km/h
Spd
kts
Gust
kts
22/11:30pm 20.2 18.7 14.1 68 3.5 ESE 15 20 8 11 1024.2 1023.9 0.0
22/11:00pm 20.2 18.2 13.9 67 3.6 E 17 22 9 12 1024.3 1024.0 0.0

Other Formats:

Comma delimited format used in spreadsheet applications
http://www.bom.gov.au/fwo/IDN60801/IDN60801.94599.axf

JavaScript Object Notation format (JSON) in row-major order
http://www.bom.gov.au/fwo/IDN60801/IDN60801.94599.json